sensor_id;sensor_type;location;lat;lon;timestamp;pressure;altitude;pressure_sealevel;temperature;humidity
7824;BME280;3957;48.61947800;9.05303100;2023-07-28T00:00:22;95454.44;;;13.93;100.00
7824;BME280;3957;48.61947800;9.05303100;2023-07-28T00:01:23;95449.97;;;13.99;100.00
7824;BME280;3957;48.61947800;9.05303100;2023-07-28T00:02:25;95457.88;;;14.05;100.00
7824;BME280;3957;48.61947800;9.05303100;2023-07-28T00:03:26;95451.34;;;14.01;100.00
7824;BME280;3957;48.61947800;9.05303100;2023-07-28T00:04:28;95450.31;;;14.02;100.00
7824;BME280;3957;48.61947800;9.05303100;2023-07-28T00:05:29;95449.81;;;14.05;100.00
7824;BME280;3957;48.61947800;9.05303100;2023-07-28T00:06:31;95449.81;;;14.05;100.00
7824;BME280;3957;48.61947800;9.05303100;2023-07-28T00:07:36;95446.63;;;14.08;100.00
7824;BME280;3957;48.61947800;9.05303100;2023-07-28T00:08:37;95447.72;;;14.07;100.00
7824;BME280;3957;48.61947800;9.05303100;2023-07-28T00:09:39;95444.19;;;14.07;100.00
7824;BME280;3957;48.61947800;9.05303100;2023-07-28T00:10:41;95439.72;;;14.12;100.00
7824;BME280;3957;48.61947800;9.05303100;2023-07-28T00:11:43;95445.44;;;14.16;100.00
7824;BME280;3957;48.61947800;9.05303100;2023-07-28T00:12:45;95443.56;;;14.17;100.00
7824;BME280;3957;48.61947800;9.05303100;2023-07-28T00:13:46;95446.94;;;14.24;100.00
7824;BME280;3957;48.61947800;9.05303100;2023-07-28T00:14:48;95447.50;;;14.26;100.00
7824;BME280;3957;48.61947800;9.05303100;2023-07-28T00:15:49;95448.09;;;14.28;100.00
7824;BME280;3957;48.61947800;9.05303100;2023-07-28T00:16:56;95449.94;;;14.27;100.00
7824;BME280;3957;48.61947800;9.05303100;2023-07-28T00:17:58;95443.84;;;14.32;100.00
7824;BME280;3957;48.61947800;9.05303100;2023-07-28T00:19:01;95439.81;;;14.35;100.00
7824;BME280;3957;48.61947800;9.05303100;2023-07-28T00:20:03;95444.50;;;14.39;100.00
7824;BME280;3957;48.61947800;9.05303100;2023-07-28T00:21:05;95442.13;;;14.43;100.00
7824;BME280;3957;48.61947800;9.05303100;2023-07-28T00:22:07;95439.44;;;14.43;100.00
7824;BME280;3957;48.61947800;9.05303100;2023-07-28T00:23:08;95456.50;;;14.49;100.00
7824;BME280;3957;48.61947800;9.05303100;2023-07-28T00:24:10;95451.19;;;14.54;100.00
7824;BME280;3957;48.61947800;9.05303100;2023-07-28T00:25:11;95448.00;;;14.57;100.00
7824;BME280;3957;48.61947800;9.05303100;2023-07-28T00:26:13;95450.78;;;14.62;100.00
7824;BME280;3957;48.61947800;9.05303100;2023-07-28T00:27:15;95453.00;;;14.65;100.00
7824;BME280;3957;48.61947800;9.05303100;2023-07-28T00:28:18;95451.38;;;14.64;100.00
7824;BME280;3957;48.61947800;9.05303100;2023-07-28T00:29:21;95453.34;;;14.69;100.00
7824;BME280;3957;48.61947800;9.05303100;2023-07-28T00:30:22;95444.75;;;14.72;100.00
7824;BME280;3957;48.61947800;9.05303100;2023-07-28T00:31:24;95449.00;;;14.68;100.00
7824;BME280;3957;48.61947800;9.05303100;2023-07-28T00:32:27;95455.47;;;14.67;100.00
7824;BME280;3957;48.61947800;9.05303100;2023-07-28T00:33:28;95449.50;;;14.65;100.00
7824;BME280;3957;48.61947800;9.05303100;2023-07-28T00:34:31;95447.22;;;14.73;100.00
7824;BME280;3957;48.61947800;9.05303100;2023-07-28T00:35:32;95450.88;;;14.84;100.00
7824;BME280;3957;48.61947800;9.05303100;2023-07-28T00:36:34;95450.16;;;14.89;100.00
7824;BME280;3957;48.61947800;9.05303100;2023-07-28T00:37:36;95447.09;;;15.02;100.00
7824;BME280;3957;48.61947800;9.05303100;2023-07-28T00:38:37;95457.56;;;14.99;100.00
7824;BME280;3957;48.61947800;9.05303100;2023-07-28T00:39:39;95447.84;;;14.98;100.00
7824;BME280;3957;48.61947800;9.05303100;2023-07-28T00:40:40;95446.47;;;14.95;100.00
7824;BME280;3957;48.61947800;9.05303100;2023-07-28T00:41:42;95449.31;;;15.05;100.00
7824;BME280;3957;48.61947800;9.05303100;2023-07-28T00:42:44;95446.03;;;15.03;100.00
7824;BME280;3957;48.61947800;9.05303100;2023-07-28T00:43:46;95459.84;;;15.07;100.00
7824;BME280;3957;48.61947800;9.05303100;2023-07-28T00:44:48;95451.81;;;15.12;100.00
7824;BME280;3957;48.61947800;9.05303100;2023-07-28T00:45:49;95443.03;;;15.22;100.00
7824;BME280;3957;48.61947800;9.05303100;2023-07-28T00:46:51;95444.19;;;15.26;100.00
7824;BME280;3957;48.61947800;9.05303100;2023-07-28T00:47:54;95442.25;;;15.21;100.00
7824;BME280;3957;48.61947800;9.05303100;2023-07-28T00:48:59;95439.81;;;15.20;100.00
7824;BME280;3957;48.61947800;9.05303100;2023-07-28T00:50:02;95440.06;;;15.18;100.00
7824;BME280;3957;48.61947800;9.05303100;2023-07-28T00:51:03;95438.41;;;15.17;100.00
7824;BME280;3957;48.61947800;9.05303100;2023-07-28T00:52:07;95438.91;;;15.14;100.00
7824;BME280;3957;48.61947800;9.05303100;2023-07-28T00:53:09;95433.69;;;15.07;100.00
7824;BME280;3957;48.61947800;9.05303100;2023-07-28T00:54:10;95439.91;;;15.08;100.00
7824;BME280;3957;48.61947800;9.05303100;2023-07-28T00:55:13;95443.59;;;15.02;100.00
7824;BME280;3957;48.61947800;9.05303100;2023-07-28T00:56:15;95452.06;;;15.10;100.00
7824;BME280;3957;48.61947800;9.05303100;2023-07-28T00:57:16;95453.16;;;15.09;100.00
7824;BME280;3957;48.61947800;9.05303100;2023-07-28T00:58:21;95442.59;;;15.08;100.00
7824;BME280;3957;48.61947800;9.05303100;2023-07-28T00:59:23;95446.03;;;15.03;100.00
7824;BME280;3957;48.61947800;9.05303100;2023-07-28T01:00:25;95447.84;;;14.98;100.00
7824;BME280;3957;48.61947800;9.05303100;2023-07-28T01:01:26;95449.50;;;14.99;100.00
7824;BME280;3957;48.61947800;9.05303100;2023-07-28T01:02:28;95444.56;;;14.95;100.00
7824;BME280;3957;48.61947800;9.05303100;2023-07-28T01:03:30;95442.38;;;14.92;100.00
7824;BME280;3957;48.61947800;9.05303100;2023-07-28T01:04:32;95453.50;;;14.96;100.00
7824;BME280;3957;48.61947800;9.05303100;2023-07-28T01:05:58;95448.34;;;14.94;100.00
7824;BME280;3957;48.61947800;9.05303100;2023-07-28T01:07:14;95436.69;;;14.89;100.00
7824;BME280;3957;48.61947800;9.05303100;2023-07-28T01:08:30;95449.56;;;14.87;100.00
7824;BME280;3957;48.61947800;9.05303100;2023-07-28T01:09:43;95438.97;;;14.80;100.00
7824;BME280;3957;48.61947800;9.05303100;2023-07-28T01:10:48;95444.44;;;14.85;100.00
7824;BME280;3957;48.61947800;9.05303100;2023-07-28T01:11:57;95436.34;;;14.85;100.00
7824;BME280;3957;48.61947800;9.05303100;2023-07-28T01:12:59;95438.88;;;14.92;100.00
7824;BME280;3957;48.61947800;9.05303100;2023-07-28T01:14:00;95444.19;;;14.87;100.00
7824;BME280;3957;48.61947800;9.05303100;2023-07-28T01:15:02;95435.28;;;14.86;100.00
7824;BME280;3957;48.61947800;9.05303100;2023-07-28T01:16:06;95432.28;;;14.83;100.00
7824;BME280;3957;48.61947800;9.05303100;2023-07-28T01:17:08;95428.44;;;14.78;100.00
7824;BME280;3957;48.61947800;9.05303100;2023-07-28T01:18:10;95434.66;;;14.79;100.00
7824;BME280;3957;48.61947800;9.05303100;2023-07-28T01:19:11;95430.63;;;14.82;100.00
7824;BME280;3957;48.61947800;9.05303100;2023-07-28T01:20:13;95426.97;;;14.88;100.00
7824;BME280;3957;48.61947800;9.05303100;2023-07-28T01:21:22;95431.31;;;14.89;100.00
7824;BME280;3957;48.61947800;9.05303100;2023-07-28T01:23:28;95432.28;;;14.83;100.00
7824;BME280;3957;48.61947800;9.05303100;2023-07-28T01:24:17;95434.16;;;14.82;100.00
7824;BME280;3957;48.61947800;9.05303100;2023-07-28T01:25:50;95433.16;;;14.88;100.00
7824;BME280;3957;48.61947800;9.05303100;2023-07-28T01:26:55;95439.19;;;14.95;100.00
7824;BME280;3957;48.61947800;9.05303100;2023-07-28T01:27:58;95437.56;;;14.94;100.00
7824;BME280;3957;48.61947800;9.05303100;2023-07-28T01:29:03;95437.56;;;14.94;100.00
7824;BME280;3957;48.61947800;9.05303100;2023-07-28T01:30:05;95429.13;;;15.08;100.00
7824;BME280;3957;48.61947800;9.05303100;2023-07-28T01:31:07;95432.47;;;15.15;100.00
7824;BME280;3957;48.61947800;9.05303100;2023-07-28T01:32:11;95432.25;;;15.22;100.00
7824;BME280;3957;48.61947800;9.05303100;2023-07-28T01:33:12;95435.28;;;15.25;100.00
7824;BME280;3957;48.61947800;9.05303100;2023-07-28T01:34:14;95433.19;;;15.27;100.00
7824;BME280;3957;48.61947800;9.05303100;2023-07-28T01:35:16;95429.72;;;15.32;100.00
7824;BME280;3957;48.61947800;9.05303100;2023-07-28T01:36:17;95433.91;;;15.45;100.00
7824;BME280;3957;48.61947800;9.05303100;2023-07-28T01:37:19;95422.94;;;15.52;100.00
7824;BME280;3957;48.61947800;9.05303100;2023-07-28T01:38:20;95435.13;;;15.54;100.00
7824;BME280;3957;48.61947800;9.05303100;2023-07-28T01:39:22;95430.59;;;15.60;100.00
7824;BME280;3957;48.61947800;9.05303100;2023-07-28T01:40:23;95429.03;;;15.64;100.00
7824;BME280;3957;48.61947800;9.05303100;2023-07-28T01:41:25;95427.38;;;15.63;100.00
7824;BME280;3957;48.61947800;9.05303100;2023-07-28T01:42:27;95426.91;;;15.66;100.00
7824;BME280;3957;48.61947800;9.05303100;2023-07-28T01:43:28;95414.47;;;15.65;100.00
7824;BME280;3957;48.61947800;9.05303100;2023-07-28T01:44:30;95423.88;;;15.62;100.00
7824;BME280;3957;48.61947800;9.05303100;2023-07-28T01:45:31;95417.47;;;15.69;100.00
7824;BME280;3957;48.61947800;9.05303100;2023-07-28T01:46:33;95413.66;;;15.64;100.00
7824;BME280;3957;48.61947800;9.05303100;2023-07-28T01:47:35;95408.84;;;15.67;100.00
7824;BME280;3957;48.61947800;9.05303100;2023-07-28T01:48:37;95409.09;;;15.65;100.00
7824;BME280;3957;48.61947800;9.05303100;2023-07-28T01:49:38;95405.06;;;15.68;100.00
7824;BME280;3957;48.61947800;9.05303100;2023-07-28T01:50:40;95402.63;;;15.66;100.00
7824;BME280;3957;48.61947800;9.05303100;2023-07-28T01:51:42;95414.47;;;15.65;100.00
7824;BME280;3957;48.61947800;9.05303100;2023-07-28T01:52:43;95407.13;;;15.60;100.00
7824;BME280;3957;48.61947800;9.05303100;2023-07-28T01:53:45;95407.81;;;15.51;100.00
7824;BME280;3957;48.61947800;9.05303100;2023-07-28T01:54:46;95408.25;;;15.42;100.00
7824;BME280;3957;48.61947800;9.05303100;2023-07-28T01:55:48;95404.69;;;15.37;100.00
7824;BME280;3957;48.61947800;9.05303100;2023-07-28T01:56:49;95403.56;;;15.33;100.00
7824;BME280;3957;48.61947800;9.05303100;2023-07-28T01:57:57;95398.34;;;15.26;100.00
7824;BME280;3957;48.61947800;9.05303100;2023-07-28T01:58:59;95397.75;;;15.19;100.00
7824;BME280;3957;48.61947800;9.05303100;2023-07-28T02:00:01;95397.44;;;15.15;100.00
7824;BME280;3957;48.61947800;9.05303100;2023-07-28T02:01:13;95393.63;;;15.11;100.00
7824;BME280;3957;48.61947800;9.05303100;2023-07-28T02:02:15;95394.09;;;15.08;100.00
7824;BME280;3957;48.61947800;9.05303100;2023-07-28T02:03:17;95390.97;;;15.16;100.00
7824;BME280;3957;48.61947800;9.05303100;2023-07-28T02:04:18;95397.69;;;15.13;100.00
7824;BME280;3957;48.61947800;9.05303100;2023-07-28T02:05:20;95397.69;;;15.13;100.00
7824;BME280;3957;48.61947800;9.05303100;2023-07-28T02:06:22;95395.97;;;15.07;100.00
7824;BME280;3957;48.61947800;9.05303100;2023-07-28T02:07:24;95389.72;;;15.02;100.00
7824;BME280;3957;48.61947800;9.05303100;2023-07-28T02:08:26;95400.22;;;15.03;100.00
7824;BME280;3957;48.61947800;9.05303100;2023-07-28T02:09:27;95398.78;;;14.95;100.00
7824;BME280;3957;48.61947800;9.05303100;2023-07-28T02:10:29;95392.03;;;14.93;100.00
7824;BME280;3957;48.61947800;9.05303100;2023-07-28T02:11:31;95392.19;;;14.86;100.00
7824;BME280;3957;48.61947800;9.05303100;2023-07-28T02:12:32;95389.25;;;14.88;100.00
7824;BME280;3957;48.61947800;9.05303100;2023-07-28T02:13:34;95394.94;;;14.91;100.00
7824;BME280;3957;48.61947800;9.05303100;2023-07-28T02:14:37;95396.28;;;14.89;100.00
7824;BME280;3957;48.61947800;9.05303100;2023-07-28T02:15:39;95392.56;;;14.95;100.00
7824;BME280;3957;48.61947800;9.05303100;2023-07-28T02:16:42;95397.38;;;15.10;100.00
7824;BME280;3957;48.61947800;9.05303100;2023-07-28T02:17:44;95399.13;;;15.21;100.00
7824;BME280;3957;48.61947800;9.05303100;2023-07-28T02:18:45;95398.34;;;15.26;100.00
7824;BME280;3957;48.61947800;9.05303100;2023-07-28T02:19:47;95396.00;;;15.29;100.00
7824;BME280;3957;48.61947800;9.05303100;2023-07-28T02:20:48;95398.06;;;15.44;100.00
7824;BME280;3957;48.61947800;9.05303100;2023-07-28T02:21:51;95402.13;;;15.47;100.00
7824;BME280;3957;48.61947800;9.05303100;2023-07-28T02:22:52;95397.81;;;15.46;100.00
7824;BME280;3957;48.61947800;9.05303100;2023-07-28T02:23:54;95402.94;;;15.47;100.00
7824;BME280;3957;48.61947800;9.05303100;2023-07-28T02:24:56;95395.69;;;15.48;100.00
7824;BME280;3957;48.61947800;9.05303100;2023-07-28T02:26:01;95403.53;;;15.50;100.00
7824;BME280;3957;48.61947800;9.05303100;2023-07-28T02:27:03;95395.97;;;15.52;100.00
7824;BME280;3957;48.61947800;9.05303100;2023-07-28T02:28:06;95400.13;;;15.59;100.00
7824;BME280;3957;48.61947800;9.05303100;2023-07-28T02:29:07;95398.81;;;15.62;100.00
7824;BME280;3957;48.61947800;9.05303100;2023-07-28T02:30:09;95397.19;;;15.61;100.00
7824;BME280;3957;48.61947800;9.05303100;2023-07-28T02:31:11;95402.25;;;15.57;100.00
7824;BME280;3957;48.61947800;9.05303100;2023-07-28T02:32:13;95397.69;;;15.58;100.00
7824;BME280;3957;48.61947800;9.05303100;2023-07-28T02:33:15;95398.22;;;15.60;100.00
7824;BME280;3957;48.61947800;9.05303100;2023-07-28T02:34:17;95397.91;;;15.56;100.00
7824;BME280;3957;48.61947800;9.05303100;2023-07-28T02:35:18;95397.63;;;15.53;100.00
7824;BME280;3957;48.61947800;9.05303100;2023-07-28T02:36:22;95398.13;;;15.50;100.00
7824;BME280;3957;48.61947800;9.05303100;2023-07-28T02:37:24;95399.88;;;15.39;100.00
7824;BME280;3957;48.61947800;9.05303100;2023-07-28T02:38:26;95397.13;;;15.34;100.00
7824;BME280;3957;48.61947800;9.05303100;2023-07-28T02:39:27;95400.84;;;15.27;100.00
7824;BME280;3957;48.61947800;9.05303100;2023-07-28T02:40:29;95398.88;;;15.23;100.00
7824;BME280;3957;48.61947800;9.05303100;2023-07-28T02:41:30;95397.47;;;15.20;100.00
7824;BME280;3957;48.61947800;9.05303100;2023-07-28T02:42:32;95399.03;;;15.16;100.00
7824;BME280;3957;48.61947800;9.05303100;2023-07-28T02:43:35;95398.16;;;15.10;100.00
7824;BME280;3957;48.61947800;9.05303100;2023-07-28T02:44:37;95400.13;;;15.15;100.00
7824;BME280;3957;48.61947800;9.05303100;2023-07-28T02:45:38;95405.44;;;15.10;100.00
7824;BME280;3957;48.61947800;9.05303100;2023-07-28T02:46:40;95404.06;;;15.07;100.00
7824;BME280;3957;48.61947800;9.05303100;2023-07-28T02:47:41;95405.88;;;15.02;100.00
7824;BME280;3957;48.61947800;9.05303100;2023-07-28T02:48:43;95415.59;;;15.03;100.00
7824;BME280;3957;48.61947800;9.05303100;2023-07-28T02:49:46;95408.31;;;15.03;100.00
7824;BME280;3957;48.61947800;9.05303100;2023-07-28T02:50:50;95414.75;;;15.02;100.00
7824;BME280;3957;48.61947800;9.05303100;2023-07-28T02:51:52;95415.09;;;15.06;100.00
7824;BME280;3957;48.61947800;9.05303100;2023-07-28T02:52:53;95415.84;;;15.01;100.00
7824;BME280;3957;48.61947800;9.05303100;2023-07-28T02:53:55;95415.09;;;15.06;100.00
7824;BME280;3957;48.61947800;9.05303100;2023-07-28T02:54:56;95421.03;;;15.08;100.00
7824;BME280;3957;48.61947800;9.05303100;2023-07-28T02:55:58;95417.66;;;15.18;100.00
7824;BME280;3957;48.61947800;9.05303100;2023-07-28T02:57:00;95421.47;;;15.22;100.00
7824;BME280;3957;48.61947800;9.05303100;2023-07-28T02:58:01;95423.44;;;15.26;100.00
7824;BME280;3957;48.61947800;9.05303100;2023-07-28T02:59:04;95420.19;;;15.24;100.00
7824;BME280;3957;48.61947800;9.05303100;2023-07-28T03:00:06;95423.44;;;15.26;100.00
7824;BME280;3957;48.61947800;9.05303100;2023-07-28T03:01:11;95425.09;;;15.27;100.00
7824;BME280;3957;48.61947800;9.05303100;2023-07-28T03:02:13;95415.19;;;15.33;100.00
7824;BME280;3957;48.61947800;9.05303100;2023-07-28T03:03:15;95424.69;;;15.41;100.00
7824;BME280;3957;48.61947800;9.05303100;2023-07-28T03:04:18;95421.88;;;15.53;100.00
7824;BME280;3957;48.61947800;9.05303100;2023-07-28T03:05:51;95423.28;;;15.55;100.00
7824;BME280;3957;48.61947800;9.05303100;2023-07-28T03:06:59;95423.53;;;15.54;100.00
7824;BME280;3957;48.61947800;9.05303100;2023-07-28T03:08:00;95431.66;;;15.59;100.00
7824;BME280;3957;48.61947800;9.05303100;2023-07-28T03:09:02;95434.34;;;15.59;100.00
7824;BME280;3957;48.61947800;9.05303100;2023-07-28T03:10:15;95437.63;;;15.61;100.00
7824;BME280;3957;48.61947800;9.05303100;2023-07-28T03:11:18;95444.88;;;15.60;100.00
7824;BME280;3957;48.61947800;9.05303100;2023-07-28T03:12:21;95444.69;;;15.67;100.00
7824;BME280;3957;48.61947800;9.05303100;2023-07-28T03:13:22;95449.59;;;15.70;100.00
7824;BME280;3957;48.61947800;9.05303100;2023-07-28T03:14:24;95439.44;;;15.77;100.00
7824;BME280;3957;48.61947800;9.05303100;2023-07-28T03:15:26;95459.13;;;15.78;100.00
7824;BME280;3957;48.61947800;9.05303100;2023-07-28T03:16:27;95445.72;;;15.83;100.00
7824;BME280;3957;48.61947800;9.05303100;2023-07-28T03:17:29;95447.66;;;15.88;100.00
7824;BME280;3957;48.61947800;9.05303100;2023-07-28T03:18:31;95449.56;;;15.87;100.00
7824;BME280;3957;48.61947800;9.05303100;2023-07-28T03:19:32;95448.97;;;15.85;100.00
7824;BME280;3957;48.61947800;9.05303100;2023-07-28T03:20:34;95444.97;;;15.88;100.00
7824;BME280;3957;48.61947800;9.05303100;2023-07-28T03:21:35;95453.06;;;15.88;100.00
7824;BME280;3957;48.61947800;9.05303100;2023-07-28T03:22:40;95451.09;;;16.05;100.00
7824;BME280;3957;48.61947800;9.05303100;2023-07-28T03:23:42;95451.09;;;16.05;100.00
7824;BME280;3957;48.61947800;9.05303100;2023-07-28T03:24:43;95447.81;;;16.03;100.00
7824;BME280;3957;48.61947800;9.05303100;2023-07-28T03:25:47;95452.66;;;16.01;100.00
7824;BME280;3957;48.61947800;9.05303100;2023-07-28T03:26:49;95449.38;;;15.99;100.00
7824;BME280;3957;48.61947800;9.05303100;2023-07-28T03:27:50;95445.94;;;16.04;100.00
7824;BME280;3957;48.61947800;9.05303100;2023-07-28T03:28:54;95443.50;;;16.02;100.00
7824;BME280;3957;48.61947800;9.05303100;2023-07-28T03:29:55;95450.56;;;16.08;100.00
7824;BME280;3957;48.61947800;9.05303100;2023-07-28T03:30:57;95444.31;;;16.03;100.00
7824;BME280;3957;48.61947800;9.05303100;2023-07-28T03:31:59;95443.78;;;16.01;100.00
7824;BME280;3957;48.61947800;9.05303100;2023-07-28T03:33:00;95456.13;;;15.96;100.00
7824;BME280;3957;48.61947800;9.05303100;2023-07-28T03:34:03;95454.19;;;15.92;100.00
7824;BME280;3957;48.61947800;9.05303100;2023-07-28T03:35:06;95452.06;;;15.94;100.00
7824;BME280;3957;48.61947800;9.05303100;2023-07-28T03:36:13;95456.13;;;15.96;100.00
7824;BME280;3957;48.61947800;9.05303100;2023-07-28T03:37:14;95455.25;;;15.91;100.00
7824;BME280;3957;48.61947800;9.05303100;2023-07-28T03:38:17;95460.91;;;15.89;100.00
7824;BME280;3957;48.61947800;9.05303100;2023-07-28T03:39:21;95458.50;;;15.93;100.00
7824;BME280;3957;48.61947800;9.05303100;2023-07-28T03:40:23;95460.91;;;15.89;100.00
7824;BME280;3957;48.61947800;9.05303100;2023-07-28T03:41:27;95454.50;;;15.95;100.00
7824;BME280;3957;48.61947800;9.05303100;2023-07-28T03:42:29;95450.41;;;15.93;100.00
7824;BME280;3957;48.61947800;9.05303100;2023-07-28T03:43:30;95459.84;;;15.90;100.00
7824;BME280;3957;48.61947800;9.05303100;2023-07-28T03:44:32;95463.91;;;15.93;100.00
7824;BME280;3957;48.61947800;9.05303100;2023-07-28T03:45:33;95455.19;;;15.86;100.00
7824;BME280;3957;48.61947800;9.05303100;2023-07-28T03:46:35;95458.63;;;15.81;100.00
7824;BME280;3957;48.61947800;9.05303100;2023-07-28T03:47:37;95455.94;;;15.81;100.00
7824;BME280;3957;48.61947800;9.05303100;2023-07-28T03:48:40;95450.75;;;15.74;100.00
7824;BME280;3957;48.61947800;9.05303100;2023-07-28T03:49:42;95461.81;;;15.78;100.00
7824;BME280;3957;48.61947800;9.05303100;2023-07-28T03:50:44;95462.34;;;15.75;100.00
7824;BME280;3957;48.61947800;9.05303100;2023-07-28T03:51:45;95453.19;;;15.76;100.00
7824;BME280;3957;48.61947800;9.05303100;2023-07-28T03:52:47;95462.84;;;15.72;100.00
7824;BME280;3957;48.61947800;9.05303100;2023-07-28T03:53:48;95459.56;;;15.70;100.00
7824;BME280;3957;48.61947800;9.05303100;2023-07-28T03:54:50;95459.81;;;15.68;100.00
7824;BME280;3957;48.61947800;9.05303100;2023-07-28T03:55:51;95459.28;;;15.66;100.00
7824;BME280;3957;48.61947800;9.05303100;2023-07-28T03:56:53;95455.47;;;15.67;100.00
7824;BME280;3957;48.61947800;9.05303100;2023-07-28T03:57:54;95464.78;;;15.76;100.00
7824;BME280;3957;48.61947800;9.05303100;2023-07-28T03:58:56;95456.34;;;15.73;100.00
7824;BME280;3957;48.61947800;9.05303100;2023-07-28T03:59:57;95459.63;;;15.75;100.00
7824;BME280;3957;48.61947800;9.05303100;2023-07-28T04:00:59;95453.44;;;15.74;100.00
7824;BME280;3957;48.61947800;9.05303100;2023-07-28T04:02:00;95459.56;;;15.70;100.00
7824;BME280;3957;48.61947800;9.05303100;2023-07-28T04:03:02;95463.03;;;15.65;100.00
7824;BME280;3957;48.61947800;9.05303100;2023-07-28T04:04:04;95462.19;;;15.64;100.00
7824;BME280;3957;48.61947800;9.05303100;2023-07-28T04:05:09;95464.34;;;15.62;100.00
7824;BME280;3957;48.61947800;9.05303100;2023-07-28T04:06:11;95458.63;;;15.59;100.00
7824;BME280;3957;48.61947800;9.05303100;2023-07-28T04:07:16;95462.16;;;15.59;100.00
7824;BME280;3957;48.61947800;9.05303100;2023-07-28T04:08:17;95464.28;;;15.57;100.00
7824;BME280;3957;48.61947800;9.05303100;2023-07-28T04:09:19;95468.03;;;15.56;100.00
7824;BME280;3957;48.61947800;9.05303100;2023-07-28T04:10:21;95470.44;;;15.53;100.00
7824;BME280;3957;48.61947800;9.05303100;2023-07-28T04:11:23;95468.53;;;15.53;100.00
7824;BME280;3957;48.61947800;9.05303100;2023-07-28T04:12:24;95472.63;;;15.56;100.00
7824;BME280;3957;48.61947800;9.05303100;2023-07-28T04:13:26;95471.56;;;15.57;100.00
7824;BME280;3957;48.61947800;9.05303100;2023-07-28T04:14:27;95468.09;;;15.61;100.00
7824;BME280;3957;48.61947800;9.05303100;2023-07-28T04:15:29;95464.09;;;15.64;100.00
7824;BME280;3957;48.61947800;9.05303100;2023-07-28T04:16:31;95471.31;;;15.58;100.00
7824;BME280;3957;48.61947800;9.05303100;2023-07-28T04:17:34;95464.84;;;15.59;100.00
7824;BME280;3957;48.61947800;9.05303100;2023-07-28T04:18:35;95459.75;;;15.63;100.00
7824;BME280;3957;48.61947800;9.05303100;2023-07-28T04:19:37;95460.00;;;15.61;100.00
7824;BME280;3957;48.61947800;9.05303100;2023-07-28T04:20:39;95465.97;;;15.63;100.00
7824;BME280;3957;48.61947800;9.05303100;2023-07-28T04:21:41;95468.50;;;15.70;100.00
7824;BME280;3957;48.61947800;9.05303100;2023-07-28T04:22:43;95464.22;;;15.74;100.00
7824;BME280;3957;48.61947800;9.05303100;2023-07-28T04:23:44;95463.72;;;15.77;100.00
7824;BME280;3957;48.61947800;9.05303100;2023-07-28T04:24:46;95462.19;;;15.81;100.00
7824;BME280;3957;48.61947800;9.05303100;2023-07-28T04:25:49;95454.56;;;15.78;100.00
7824;BME280;3957;48.61947800;9.05303100;2023-07-28T04:26:51;95455.13;;;15.80;100.00
7824;BME280;3957;48.61947800;9.05303100;2023-07-28T04:27:53;95463.31;;;15.86;100.00
7824;BME280;3957;48.61947800;9.05303100;2023-07-28T04:28:56;95461.41;;;15.86;100.00
7824;BME280;3957;48.61947800;9.05303100;2023-07-28T04:29:58;95458.50;;;15.93;100.00
7824;BME280;3957;48.61947800;9.05303100;2023-07-28T04:31:00;95459.56;;;15.92;100.00
7824;BME280;3957;48.61947800;9.05303100;2023-07-28T04:32:21;95456.16;;;16.02;100.00
7824;BME280;3957;48.61947800;9.05303100;2023-07-28T04:33:25;95458.88;;;16.02;100.00
7824;BME280;3957;48.61947800;9.05303100;2023-07-28T04:34:27;95447.78;;;15.98;100.00
7824;BME280;3957;48.61947800;9.05303100;2023-07-28T04:35:48;95443.72;;;15.95;100.00
7824;BME280;3957;48.61947800;9.05303100;2023-07-28T04:36:54;95443.19;;;15.98;100.00
7824;BME280;3957;48.61947800;9.05303100;2023-07-28T04:37:59;95444.06;;;16.04;100.00
7824;BME280;3957;48.61947800;9.05303100;2023-07-28T04:39:14;95450.50;;;16.03;100.00
7824;BME280;3957;48.61947800;9.05303100;2023-07-28T04:40:16;95445.38;;;16.02;100.00
7824;BME280;3957;48.61947800;9.05303100;2023-07-28T04:41:18;95451.09;;;16.05;100.00
7824;BME280;3957;48.61947800;9.05303100;2023-07-28T04:42:26;95443.50;;;16.02;100.00
7824;BME280;3957;48.61947800;9.05303100;2023-07-28T04:43:28;95441.34;;;16.04;100.00
7824;BME280;3957;48.61947800;9.05303100;2023-07-28T04:44:30;95442.41;;;16.03;100.00
7824;BME280;3957;48.61947800;9.05303100;2023-07-28T04:45:35;95444.56;;;16.01;100.00
7824;BME280;3957;48.61947800;9.05303100;2023-07-28T04:46:44;95442.38;;;15.98;100.00
7824;BME280;3957;48.61947800;9.05303100;2023-07-28T04:47:49;95441.94;;;16.06;100.00
7824;BME280;3957;48.61947800;9.05303100;2023-07-28T04:48:50;95446.81;;;16.09;100.00
7824;BME280;3957;48.61947800;9.05303100;2023-07-28T04:50:28;95452.75;;;16.11;100.00
7824;BME280;3957;48.61947800;9.05303100;2023-07-28T04:52:02;95451.94;;;16.11;100.00
7824;BME280;3957;48.61947800;9.05303100;2023-07-28T04:53:26;95444.66;;;16.11;100.00
7824;BME280;3957;48.61947800;9.05303100;2023-07-28T04:54:44;95448.13;;;16.07;100.00
7824;BME280;3957;48.61947800;9.05303100;2023-07-28T04:55:46;95453.28;;;16.08;100.00
7824;BME280;3957;48.61947800;9.05303100;2023-07-28T04:56:47;95455.16;;;16.08;100.00
7824;BME280;3957;48.61947800;9.05303100;2023-07-28T04:57:51;95455.44;;;16.06;100.00
7824;BME280;3957;48.61947800;9.05303100;2023-07-28T04:58:54;95456.50;;;16.05;100.00
7824;BME280;3957;48.61947800;9.05303100;2023-07-28T04:59:55;95458.66;;;16.08;100.00